createdAt,value
2022-07-29T00:07:29.946Z,15
2022-07-29T00:36:53.319Z,16
2022-07-29T01:06:20.453Z,17
2022-07-29T01:35:32.503Z,16
2022-07-29T02:04:55.303Z,18
2022-07-29T02:34:20.249Z,19
2022-07-29T03:03:13.781Z,17
2022-07-29T03:32:35.705Z,20
2022-07-29T04:01:56.804Z,20
2022-07-29T04:31:25.643Z,20
2022-07-29T05:00:10.989Z,22
2022-07-29T05:29:43.599Z,22
2022-07-29T05:58:23.641Z,20
2022-07-29T06:27:53.779Z,20
2022-07-29T06:57:25.478Z,21
2022-07-29T07:27:00.111Z,20
2022-07-29T07:56:22.959Z,18
2022-07-29T08:25:38.834Z,14
2022-07-29T08:54:30.362Z,16
2022-07-29T09:23:56.833Z,15
2022-07-29T09:53:19.078Z,13
2022-07-29T10:22:54.051Z,13
2022-07-29T10:51:47.882Z,13
2022-07-29T11:21:11.117Z,15
2022-07-29T11:50:44.788Z,13
2022-07-29T12:19:35.705Z,11
2022-07-29T12:48:56.229Z,13
2022-07-29T13:18:19.455Z,12
2022-07-29T13:47:03.868Z,11
2022-07-29T14:16:27.486Z,10
2022-07-29T14:45:45.345Z,9
2022-07-29T15:14:51.749Z,7
2022-07-29T15:44:21.137Z,11
2022-07-29T16:13:21.042Z,10
2022-07-29T16:42:45.885Z,9
2022-07-29T17:11:52.225Z,9
2022-07-29T17:40:16.569Z,11
2022-07-29T18:09:33.963Z,7
2022-07-29T18:38:46.202Z,9
2022-07-29T19:08:06.899Z,8
2022-07-29T19:37:27.915Z,11
2022-07-29T20:06:48.390Z,10
2022-07-29T20:36:12.774Z,9
2022-07-29T21:05:32.188Z,10
2022-07-29T21:34:59.761Z,9
2022-07-29T22:04:30.061Z,8
2022-07-29T22:33:49.578Z,9
2022-07-29T23:03:16.528Z,11
2022-07-29T23:32:37.763Z,10
